createdAt,value
2023-03-01T00:01:28.030Z,3.05
2023-03-01T00:04:13.224Z,3.15
2023-03-01T00:06:58.560Z,3.40
2023-03-01T00:09:46.913Z,2.53
2023-03-01T00:12:32.836Z,3.00
2023-03-01T00:15:18.461Z,2.10
2023-03-01T00:18:03.701Z,1.98
2023-03-01T00:20:54.199Z,1.70
2023-03-01T00:23:39.954Z,1.20
2023-03-01T00:26:27.161Z,1.27
2023-03-01T00:29:12.548Z,0.80
2023-03-01T00:31:58.126Z,0.85
2023-03-01T00:34:43.386Z,0.40
2023-03-01T00:37:28.895Z,1.10
2023-03-01T00:40:17.411Z,0.77
2023-03-01T00:43:04.461Z,0.60
2023-03-01T00:45:50.397Z,0.85
2023-03-01T00:48:36.183Z,0.50
2023-03-01T00:51:28.370Z,0.88
2023-03-01T00:54:15.804Z,0.57
2023-03-01T00:57:01.258Z,0.60
2023-03-01T00:59:46.530Z,0.35
2023-03-01T01:02:34.530Z,0.45
2023-03-01T01:05:21.919Z,0.40
2023-03-01T01:08:08.185Z,0.52
2023-03-01T01:10:53.702Z,0.38
2023-03-01T01:13:40.583Z,0.43
2023-03-01T01:16:29.308Z,0.30
2023-03-01T01:19:15.213Z,0.80
2023-03-01T01:22:00.847Z,0.63
2023-03-01T01:24:46.349Z,0.57
2023-03-01T01:27:31.738Z,0.47
2023-03-01T01:30:17.336Z,0.75
2023-03-01T01:33:02.828Z,0.65
2023-03-01T01:35:48.510Z,0.57
2023-03-01T01:38:35.755Z,0.43
2023-03-01T01:41:22.840Z,0.30
2023-03-01T01:44:28.798Z,0.40
2023-03-01T01:47:19.868Z,0.55
2023-03-01T01:50:05.504Z,0.32
2023-03-01T01:52:54.282Z,0.30
2023-03-01T01:55:46.299Z,0.40
2023-03-01T01:58:31.978Z,0.20
2023-03-01T02:01:17.878Z,0.47
2023-03-01T02:04:03.869Z,0.50
2023-03-01T02:06:58.469Z,0.40
2023-03-01T02:09:48.761Z,0.38
2023-03-01T02:12:35.221Z,0.88
2023-03-01T02:15:21.040Z,0.57
2023-03-01T02:18:08.453Z,0.63
2023-03-01T02:21:09.997Z,0.20
2023-03-01T02:23:58.598Z,0.30
2023-03-01T02:26:49.668Z,0.20
2023-03-01T02:29:35.124Z,0.40
2023-03-01T02:32:26.350Z,0.40
2023-03-01T02:35:15.509Z,0.38
2023-03-01T02:38:03.542Z,0.50
2023-03-01T02:40:51.207Z,0.30
2023-03-01T02:43:37.480Z,0.45
2023-03-01T02:46:26.461Z,0.30
2023-03-01T02:49:33.426Z,0.28
2023-03-01T02:52:29.804Z,0.30
2023-03-01T02:55:17.824Z,0.50
2023-03-01T02:58:04.480Z,0.32
2023-03-01T03:00:52.088Z,0.57
2023-03-01T03:03:37.293Z,0.55
2023-03-01T03:06:22.985Z,0.50
2023-03-01T03:09:09.080Z,1.00
2023-03-01T03:11:54.671Z,0.93
2023-03-01T03:14:41.204Z,0.28
2023-03-01T03:17:26.507Z,0.40
2023-03-01T03:20:13.855Z,0.50
2023-03-01T03:22:59.784Z,0.40
2023-03-01T03:25:45.022Z,0.30
2023-03-01T03:28:31.771Z,0.32
2023-03-01T03:31:17.319Z,0.40
2023-03-01T03:34:02.682Z,0.52
2023-03-01T03:36:48.137Z,0.40
2023-03-01T03:39:35.953Z,0.40
2023-03-01T03:42:23.124Z,0.40
2023-03-01T03:45:09.358Z,0.60
2023-03-01T03:47:54.687Z,0.65
2023-03-01T03:50:41.934Z,0.20
2023-03-01T03:53:29.812Z,0.43
2023-03-01T03:56:15.476Z,0.43
2023-03-01T03:59:00.721Z,0.50
2023-03-01T04:01:46.345Z,0.38
2023-03-01T04:04:31.857Z,0.60
2023-03-01T04:07:17.980Z,0.73
2023-03-01T04:10:09.501Z,0.75
2023-03-01T04:12:57.206Z,0.47
2023-03-01T04:15:44.138Z,0.28
2023-03-01T04:18:29.720Z,0.40
2023-03-01T04:21:15.160Z,0.40
2023-03-01T04:24:00.890Z,0.50
2023-03-01T04:26:46.184Z,0.30
2023-03-01T04:29:31.515Z,0.73
2023-03-01T04:32:17.780Z,0.32
2023-03-01T04:35:03.235Z,0.60
2023-03-01T04:37:48.710Z,0.30
2023-03-01T04:40:34.869Z,0.43
2023-03-01T04:43:20.379Z,0.50
2023-03-01T04:46:10.351Z,0.52
2023-03-01T04:48:56.056Z,1.50
2023-03-01T04:51:41.639Z,0.30
2023-03-01T04:54:27.289Z,0.40
2023-03-01T04:57:13.019Z,0.65
2023-03-01T04:59:58.848Z,0.40
2023-03-01T05:02:44.494Z,0.35
2023-03-01T05:05:32.818Z,0.20
2023-03-01T05:08:18.599Z,0.20
2023-03-01T05:11:04.582Z,0.45
2023-03-01T05:13:54.163Z,0.60
2023-03-01T05:16:39.523Z,0.30
2023-03-01T05:19:24.980Z,0.47
2023-03-01T05:22:10.412Z,0.55
2023-03-01T05:24:56.199Z,0.45
2023-03-01T05:27:41.411Z,0.30
2023-03-01T05:30:26.750Z,0.30
2023-03-01T05:33:15.479Z,0.70
2023-03-01T05:36:01.237Z,0.17
2023-03-01T05:38:46.674Z,0.60
2023-03-01T05:41:32.049Z,0.43
2023-03-01T05:44:17.324Z,0.30
2023-03-01T05:47:02.828Z,0.98
2023-03-01T05:49:48.108Z,0.52
2023-03-01T05:52:33.571Z,0.63
2023-03-01T05:55:21.327Z,1.67
2023-03-01T05:58:10.938Z,0.50
2023-03-01T06:00:57.325Z,0.47
2023-03-01T06:03:43.542Z,0.60
2023-03-01T06:06:29.467Z,0.40
2023-03-01T06:09:15.451Z,0.68
2023-03-01T06:12:01.057Z,0.50
2023-03-01T06:14:48.551Z,0.38
2023-03-01T06:17:38.816Z,0.70
2023-03-01T06:20:26.713Z,0.52
2023-03-01T06:23:12.068Z,0.68
2023-03-01T06:25:57.458Z,0.70
2023-03-01T06:28:42.685Z,0.55
2023-03-01T06:31:28.113Z,0.55
2023-03-01T06:34:14.670Z,0.40
2023-03-01T06:37:00.421Z,0.50
2023-03-01T06:39:45.636Z,0.40
2023-03-01T06:42:31.130Z,0.30
2023-03-01T06:45:16.836Z,0.50
2023-03-01T06:48:06.353Z,0.73
2023-03-01T06:50:51.876Z,0.60
2023-03-01T06:53:37.635Z,0.52
2023-03-01T06:56:23.052Z,0.70
2023-03-01T06:59:08.428Z,0.52
2023-03-01T07:01:54.186Z,0.40
2023-03-01T07:04:40.261Z,0.80
2023-03-01T07:07:25.971Z,0.88
2023-03-01T07:10:11.886Z,0.60
2023-03-01T07:12:58.825Z,0.80
2023-03-01T07:15:44.422Z,0.40
2023-03-01T07:18:29.836Z,0.50
2023-03-01T07:21:16.278Z,0.50
2023-03-01T07:24:01.864Z,0.32
2023-03-01T07:26:51.326Z,0.50
2023-03-01T07:29:39.698Z,0.38
2023-03-01T07:32:25.229Z,0.40
2023-03-01T07:35:10.542Z,0.50
2023-03-01T07:37:56.181Z,0.68
2023-03-01T07:40:41.645Z,0.50
2023-03-01T07:43:28.169Z,0.50
2023-03-01T07:46:13.842Z,0.60
2023-03-01T07:48:59.380Z,0.40
2023-03-01T07:51:44.783Z,0.80
2023-03-01T07:54:30.166Z,0.60
2023-03-01T07:57:15.777Z,0.30
2023-03-01T08:00:01.307Z,0.70
2023-03-01T08:03:01.848Z,0.50
2023-03-01T08:05:47.412Z,0.30
2023-03-01T08:08:32.817Z,0.50
2023-03-01T08:11:18.406Z,0.52
2023-03-01T08:14:03.797Z,0.30
2023-03-01T08:16:52.799Z,0.52
2023-03-01T08:19:38.090Z,0.50
2023-03-01T08:22:23.411Z,0.43
2023-03-01T08:25:09.515Z,0.50
2023-03-01T08:27:55.264Z,0.50
2023-03-01T08:30:40.751Z,0.35
2023-03-01T08:33:26.271Z,0.57
2023-03-01T08:36:11.990Z,0.30
2023-03-01T08:38:57.916Z,0.85
2023-03-01T08:41:43.700Z,0.63
2023-03-01T08:44:28.910Z,0.40
2023-03-01T08:47:14.974Z,0.70
2023-03-01T08:50:01.411Z,0.65
2023-03-01T08:52:46.778Z,0.75
2023-03-01T08:55:32.653Z,0.38
2023-03-01T08:58:18.349Z,0.98
2023-03-01T09:01:16.098Z,0.20
2023-03-01T09:04:01.434Z,0.47
2023-03-01T09:06:47.283Z,0.50
2023-03-01T09:09:32.521Z,0.65
2023-03-01T09:12:17.722Z,0.40
2023-03-01T09:15:03.429Z,0.47
2023-03-01T09:17:48.859Z,0.40
2023-03-01T09:20:34.233Z,0.30
2023-03-01T09:23:19.589Z,0.30
2023-03-01T09:26:05.197Z,0.20
2023-03-01T09:28:54.448Z,0.50
2023-03-01T09:31:40.253Z,0.30
2023-03-01T09:34:25.816Z,0.40
2023-03-01T09:37:11.294Z,0.20
2023-03-01T09:39:56.625Z,0.50
2023-03-01T09:42:51.516Z,0.50
2023-03-01T09:45:44.381Z,0.80
2023-03-01T09:48:38.081Z,0.40
2023-03-01T09:51:36.062Z,0.45
2023-03-01T09:54:21.771Z,0.45
2023-03-01T09:57:33.543Z,0.47
2023-03-01T10:00:27.735Z,0.40
2023-03-01T10:03:19.189Z,0.22
2023-03-01T10:06:24.101Z,0.50
2023-03-01T10:09:17.354Z,0.30
2023-03-01T10:12:05.904Z,0.85
2023-03-01T10:15:03.755Z,0.45
2023-03-01T10:18:04.316Z,0.38
2023-03-01T10:21:22.582Z,0.30
2023-03-01T10:24:22.768Z,0.50
2023-03-01T10:27:18.805Z,0.60
2023-03-01T10:30:21.081Z,0.50
2023-03-01T10:33:21.573Z,0.20
2023-03-01T10:36:07.560Z,0.30
2023-03-01T10:38:58.002Z,0.57
2023-03-01T10:42:05.586Z,0.65
2023-03-01T10:44:51.135Z,0.70
2023-03-01T10:47:36.511Z,0.45
2023-03-01T10:50:23.924Z,0.28
2023-03-01T10:53:41.302Z,0.40
2023-03-01T10:56:26.701Z,0.10
2023-03-01T10:59:27.032Z,0.77
2023-03-01T11:02:30.498Z,0.20
2023-03-01T11:05:20.642Z,0.52
2023-03-01T11:08:06.124Z,0.50
2023-03-01T11:10:51.636Z,0.43
2023-03-01T11:13:57.408Z,0.40
2023-03-01T11:16:45.610Z,0.40
2023-03-01T11:19:31.654Z,0.30
2023-03-01T11:22:23.620Z,0.50
2023-03-01T11:25:14.505Z,0.40
2023-03-01T11:28:04.193Z,0.32
2023-03-01T11:31:09.230Z,0.50
2023-03-01T11:34:12.954Z,0.40
2023-03-01T11:37:03.388Z,0.20
2023-03-01T11:39:55.870Z,0.28
2023-03-01T11:42:58.020Z,0.30
2023-03-01T11:46:23.839Z,0.60
2023-03-01T11:49:28.157Z,0.38
2023-03-01T11:52:25.980Z,0.40
2023-03-01T11:55:14.442Z,0.47
2023-03-01T11:58:30.576Z,0.30
2023-03-01T12:01:33.999Z,0.40
2023-03-01T12:04:22.306Z,0.75
2023-03-01T12:07:25.031Z,0.38
2023-03-01T12:13:39.618Z,0.22
2023-03-01T12:16:40.752Z,0.40
2023-03-01T12:19:44.252Z,0.20
2023-03-01T12:22:36.025Z,0.47
2023-03-01T12:25:21.457Z,0.50
2023-03-01T12:28:28.428Z,0.65
2023-03-01T12:31:38.503Z,0.50
2023-03-01T12:34:50.648Z,0.38
2023-03-01T12:38:07.680Z,0.40
2023-03-01T12:41:02.517Z,0.55
2023-03-01T12:44:06.538Z,0.75
2023-03-01T12:47:11.947Z,0.65
2023-03-01T12:50:04.010Z,1.25
2023-03-01T12:52:54.230Z,1.23
2023-03-01T12:55:43.832Z,0.65
2023-03-01T12:58:47.251Z,0.68
2023-03-01T13:01:54.367Z,0.45
2023-03-01T13:05:05.111Z,0.70
2023-03-01T13:08:15.905Z,0.30
2023-03-01T13:11:06.768Z,0.80
2023-03-01T13:13:54.225Z,0.35
2023-03-01T13:16:40.913Z,0.32
2023-03-01T13:19:30.338Z,0.50
2023-03-01T13:22:32.753Z,1.20
2023-03-01T13:25:20.593Z,1.35
2023-03-01T13:28:37.362Z,1.33
2023-03-01T13:31:26.209Z,0.90
2023-03-01T13:34:42.023Z,0.57
2023-03-01T13:37:30.698Z,1.10
2023-03-01T13:40:23.608Z,1.55
2023-03-01T13:43:39.254Z,0.65
2023-03-01T13:46:25.535Z,1.33
2023-03-01T13:49:20.226Z,0.82
2023-03-01T13:52:06.874Z,0.70
2023-03-01T13:54:54.141Z,1.10
2023-03-01T13:57:42.198Z,0.75
2023-03-01T14:00:35.827Z,1.27
2023-03-01T14:03:21.388Z,0.80
2023-03-01T14:06:31.306Z,0.60
2023-03-01T14:09:28.563Z,0.43
2023-03-01T14:12:19.349Z,0.50
2023-03-01T14:15:17.373Z,0.68
2023-03-01T14:18:12.182Z,0.40
2023-03-01T14:20:58.417Z,0.38
2023-03-01T14:23:44.127Z,2.15
2023-03-01T14:26:32.925Z,0.93
2023-03-01T14:29:35.272Z,1.67
2023-03-01T14:32:25.156Z,0.73
2023-03-01T14:35:32.358Z,1.42
2023-03-01T14:38:23.585Z,1.67
2023-03-01T14:41:19.669Z,0.50
2023-03-01T14:44:12.523Z,0.30
2023-03-01T14:46:58.476Z,1.88
2023-03-01T14:49:44.615Z,0.90
2023-03-01T14:52:37.059Z,0.90
2023-03-01T14:58:24.081Z,1.77
2023-03-01T15:01:15.884Z,1.42
2023-03-01T15:04:02.730Z,3.13
2023-03-01T15:06:52.365Z,2.30
2023-03-01T15:09:38.441Z,1.25
2023-03-01T15:12:30.123Z,1.52
2023-03-01T15:15:23.232Z,1.50
2023-03-01T15:18:27.847Z,1.42
2023-03-01T15:21:19.612Z,1.85
2023-03-01T15:24:23.164Z,1.20
2023-03-01T15:27:23.928Z,1.67
2023-03-01T15:30:20.382Z,1.40
2023-03-01T15:33:30.555Z,0.70
2023-03-01T15:36:31.742Z,1.40
2023-03-01T15:39:44.415Z,0.68
2023-03-01T15:42:29.831Z,1.13
2023-03-01T15:45:18.186Z,0.68
2023-03-01T15:48:18.548Z,0.60
2023-03-01T15:51:04.357Z,1.05
2023-03-01T15:53:54.750Z,0.40
2023-03-01T15:56:40.322Z,0.60
2023-03-01T15:59:25.750Z,0.55
2023-03-01T16:02:13.743Z,0.50
2023-03-01T16:04:59.231Z,0.57
2023-03-01T16:07:44.554Z,0.40
2023-03-01T16:10:31.181Z,0.35
2023-03-01T16:13:16.792Z,0.43
2023-03-01T16:16:02.158Z,0.43
2023-03-01T16:18:48.110Z,0.70
2023-03-01T16:21:33.827Z,0.60
2023-03-01T16:24:19.736Z,0.82
2023-03-01T16:27:05.426Z,2.50
2023-03-01T16:29:50.764Z,1.70
2023-03-01T16:32:44.310Z,2.00
2023-03-01T16:35:30.266Z,1.10
2023-03-01T16:38:16.256Z,0.93
2023-03-01T16:41:01.748Z,1.10
2023-03-01T16:43:47.824Z,2.75
2023-03-01T16:46:33.740Z,2.22
2023-03-01T16:49:19.434Z,1.85
2023-03-01T16:52:05.056Z,1.17
2023-03-01T16:54:50.394Z,2.80
2023-03-01T16:57:37.886Z,3.60
2023-03-01T17:00:24.080Z,3.00
2023-03-01T17:03:09.419Z,1.77
2023-03-01T17:05:54.808Z,1.35
2023-03-01T17:08:41.226Z,1.10
2023-03-01T17:11:26.585Z,1.20
2023-03-01T17:14:12.175Z,1.23
2023-03-01T17:16:57.768Z,1.33
2023-03-01T17:19:44.605Z,0.95
2023-03-01T17:22:29.914Z,0.85
2023-03-01T17:25:16.011Z,1.20
2023-03-01T17:28:01.725Z,1.55
2023-03-01T17:30:48.100Z,0.95
2023-03-01T17:33:33.644Z,0.90
2023-03-01T17:36:19.400Z,0.80
2023-03-01T17:39:04.882Z,0.80
2023-03-01T17:41:50.217Z,0.88
2023-03-01T17:44:35.469Z,0.98
2023-03-01T17:47:20.761Z,1.30
2023-03-01T17:50:08.299Z,0.95
2023-03-01T17:52:53.899Z,1.15
2023-03-01T17:55:41.664Z,1.05
2023-03-01T17:58:27.497Z,0.80
2023-03-01T18:01:15.929Z,1.30
2023-03-01T18:04:01.514Z,1.30
2023-03-01T18:06:47.014Z,1.10
2023-03-01T18:09:32.609Z,1.52
2023-03-01T18:12:18.216Z,1.83
2023-03-01T18:15:04.699Z,1.70
2023-03-01T18:17:50.278Z,1.77
2023-03-01T18:20:35.831Z,1.58
2023-03-01T18:23:21.298Z,1.90
2023-03-01T18:26:12.699Z,2.17
2023-03-01T18:29:01.199Z,2.23
2023-03-01T18:31:47.144Z,3.25
2023-03-01T18:34:33.222Z,3.30
2023-03-01T18:37:18.489Z,2.03
2023-03-01T18:40:04.773Z,2.28
2023-03-01T18:42:50.218Z,2.13
2023-03-01T18:45:35.617Z,1.92
2023-03-01T18:48:21.174Z,1.80
2023-03-01T18:51:16.300Z,1.17
2023-03-01T18:54:02.102Z,1.75
2023-03-01T18:56:47.394Z,2.58
2023-03-01T18:59:32.897Z,2.17
2023-03-01T19:02:18.699Z,2.28
2023-03-01T19:05:04.147Z,1.60
2023-03-01T19:07:49.985Z,1.48
2023-03-01T19:10:35.706Z,1.42
2023-03-01T19:13:21.007Z,1.63
2023-03-01T19:16:12.388Z,2.00
2023-03-01T19:19:00.463Z,1.65
2023-03-01T19:21:56.000Z,2.03
2023-03-01T19:27:34.006Z,1.45
2023-03-01T19:30:19.687Z,2.15
2023-03-01T19:33:05.715Z,2.28
2023-03-01T19:35:51.577Z,2.03
2023-03-01T19:38:38.276Z,1.90
2023-03-01T19:41:23.848Z,2.65
2023-03-01T19:44:10.359Z,2.13
2023-03-01T19:46:59.774Z,1.92
2023-03-01T19:49:45.357Z,2.40
2023-03-01T19:52:30.624Z,2.38
2023-03-01T19:55:16.107Z,2.03
2023-03-01T19:58:01.800Z,1.92
2023-03-01T20:00:47.743Z,1.50
2023-03-01T20:03:35.897Z,2.00
2023-03-01T20:06:21.931Z,1.10
2023-03-01T20:09:20.296Z,1.23
2023-03-01T20:12:06.801Z,1.25
2023-03-01T20:14:55.455Z,1.42
2023-03-01T20:17:40.871Z,1.00
2023-03-01T20:20:26.272Z,2.45
2023-03-01T20:23:11.596Z,4.05
2023-03-01T20:26:06.566Z,3.83
2023-03-01T20:28:54.760Z,1.90
2023-03-01T20:31:41.784Z,1.50
2023-03-01T20:34:27.548Z,1.30
2023-03-01T20:37:13.211Z,1.35
2023-03-01T20:39:59.028Z,1.30
2023-03-01T20:42:44.378Z,1.50
2023-03-01T20:45:29.914Z,1.25
2023-03-01T20:48:15.465Z,1.27
2023-03-01T20:51:05.328Z,1.80
2023-03-01T20:53:51.258Z,1.42
2023-03-01T20:56:37.932Z,1.70
2023-03-01T20:59:24.004Z,1.77
2023-03-01T21:02:11.564Z,1.17
2023-03-01T21:04:57.086Z,1.15
2023-03-01T21:07:43.111Z,2.00
2023-03-01T21:10:30.899Z,1.08
2023-03-01T21:13:16.318Z,1.10
2023-03-01T21:16:10.574Z,1.48
2023-03-01T21:18:56.067Z,2.58
2023-03-01T21:21:41.471Z,2.10
2023-03-01T21:24:26.929Z,1.58
2023-03-01T21:27:12.506Z,2.15
2023-03-01T21:29:58.077Z,3.85
2023-03-01T21:32:43.595Z,3.08
2023-03-01T21:35:29.295Z,3.25
2023-03-01T21:38:14.460Z,2.55
2023-03-01T21:41:23.017Z,1.23
2023-03-01T21:44:08.633Z,1.83
2023-03-01T21:46:54.717Z,1.63
2023-03-01T21:49:40.031Z,2.42
2023-03-01T21:52:25.282Z,3.13
2023-03-01T21:55:12.320Z,4.07
2023-03-01T21:57:58.072Z,2.50
2023-03-01T22:00:43.837Z,2.58
2023-03-01T22:03:29.106Z,2.95
2023-03-01T22:06:20.341Z,2.10
2023-03-01T22:09:12.035Z,1.20
2023-03-01T22:12:02.157Z,2.17
2023-03-01T22:14:47.995Z,1.80
2023-03-01T22:17:33.618Z,1.00
2023-03-01T22:20:19.632Z,1.48
2023-03-01T22:23:05.354Z,1.00
2023-03-01T22:25:51.033Z,1.05
2023-03-01T22:28:37.085Z,0.68
2023-03-01T22:31:23.608Z,0.77
2023-03-01T22:34:10.008Z,1.10
2023-03-01T22:36:56.633Z,0.60
2023-03-01T22:39:42.068Z,1.05
2023-03-01T22:42:27.970Z,0.60
2023-03-01T22:45:13.606Z,0.80
2023-03-01T22:48:04.969Z,0.63
2023-03-01T22:50:51.101Z,0.70
2023-03-01T22:53:36.499Z,0.68
2023-03-01T22:56:26.001Z,0.88
2023-03-01T22:59:15.199Z,0.73
2023-03-01T23:02:00.424Z,0.77
2023-03-01T23:04:48.486Z,0.90
2023-03-01T23:07:34.135Z,1.42
2023-03-01T23:10:20.679Z,0.77
2023-03-01T23:13:06.390Z,0.65
2023-03-01T23:15:57.129Z,1.02
2023-03-01T23:18:43.034Z,0.80
2023-03-01T23:21:28.448Z,0.80
2023-03-01T23:24:15.359Z,1.05
2023-03-01T23:27:02.172Z,0.77
2023-03-01T23:29:47.947Z,1.17
2023-03-01T23:32:40.579Z,0.52
2023-03-01T23:35:27.443Z,0.88
2023-03-01T23:38:13.119Z,0.98
2023-03-01T23:40:58.753Z,0.70
2023-03-01T23:43:48.912Z,1.00
2023-03-01T23:46:36.167Z,0.63
2023-03-01T23:49:23.281Z,0.40
2023-03-01T23:52:13.108Z,0.50
2023-03-01T23:54:58.587Z,0.52
2023-03-01T23:57:43.864Z,0.60
